Time;durP1;ratioP1;P1;durP2;ratioP2;P2;SDS_P1;SDS_P2;PMS_P1;PMS_P2;Temp;Humidity;BMP_temperature;BMP_pressure;BME280_temperature;BME280_humidity;BME280_pressure;Samples;Min_cycle;Max_cycle;Signal;HPM_P1;HPM_P2
2022/02/05 00:03:24;;;;;;;;;85.67;66.67;;;;;3.70;73.31;99347.66;6317861;20;3640902;-48
2022/02/05 00:06:02;;;;;;;;;87.00;64.00;;;;;3.46;74.47;99348.63;6284313;20;3661754;-45
2022/02/05 00:08:54;;;;;;;;;84.33;62.67;;;;;3.74;73.97;99359.91;6314394;20;2894088;-48
2022/02/05 00:39:26;;;;;;;;;70.00;53.00;;;;;3.17;75.02;99358.53;6315229;20;2878526;-46
2022/02/05 00:45:06;;;;;;;;;73.50;57.50;;;;;3.28;74.70;99372.25;6306501;20;2879580;-51
2022/02/05 00:47:41;;;;;;;;;79.33;57.33;;;;;3.26;74.78;99379.41;6282657;20;2889983;-52
2022/02/05 00:50:18;;;;;;;;;81.00;59.33;;;;;3.22;74.79;99382.25;6314609;20;3649216;-51
2022/02/05 00:52:59;;;;;;;;;80.00;60.33;;;;;3.15;74.64;99378.94;6309791;20;3645566;-52
2022/02/05 00:55:33;;;;;;;;;76.33;58.67;;;;;3.36;73.71;99389.69;6312374;20;3635678;-53
2022/02/05 00:58:05;;;;;;;;;82.00;62.33;;;;;3.05;74.35;99394.34;6313630;20;3645193;-53
2022/02/05 01:00:37;;;;;;;;;84.33;64.33;;;;;3.22;73.96;99395.50;6312170;20;3647169;-52
2022/02/05 01:03:07;;;;;;;;;82.67;62.00;;;;;3.25;73.84;99403.34;6311295;20;2898191;-52
2022/02/05 01:05:37;;;;;;;;;87.33;62.33;;;;;3.35;73.46;99395.94;6314693;20;3667927;-54
2022/02/05 01:08:06;;;;;;;;;77.50;61.00;;;;;3.23;74.33;99402.53;6280078;20;2876531;-53
2022/02/05 01:10:36;;;;;;;;;79.00;64.00;;;;;3.08;74.68;99390.69;6283013;20;2876302;-51
2022/02/05 01:13:09;;;;;;;;;80.00;60.00;;;;;3.18;75.04;99391.22;6311476;20;2883620;-51
2022/02/05 01:15:47;;;;;;;;;82.67;63.00;;;;;3.12;75.50;99391.44;6312273;20;3635887;-53
2022/02/05 01:18:19;;;;;;;;;85.33;66.00;;;;;3.21;75.38;99386.69;6311056;20;2866673;-55
2022/02/05 01:23:50;;;;;;;;;82.67;65.00;;;;;3.57;74.08;99393.31;6312687;20;3635654;-46
2022/02/05 01:26:34;;;;;;;;;86.67;63.67;;;;;3.12;75.88;99380.84;6313875;20;3651430;-47
2022/02/05 01:29:26;;;;;;;;;89.33;64.00;;;;;3.21;76.00;99392.00;6312977;20;3638758;-46
2022/02/05 01:31:59;;;;;;;;;86.00;64.33;;;;;3.19;76.16;99371.75;6314065;20;3639785;-47
2022/02/05 01:35:00;;;;;;;;;80.50;62.50;;;;;3.11;76.58;99379.09;6311812;20;2887862;-46
2022/02/05 01:51:38;;;;;;;;;103.00;76.67;;;;;3.34;76.27;99349.94;6280749;20;3666902;-45
2022/02/05 01:56:45;;;;;;;;;86.67;66.00;;;;;3.25;75.93;99335.22;6313156;20;3642943;-46
2022/02/05 01:59:35;;;;;;;;;91.00;67.33;;;;;3.24;75.65;99337.97;6309883;20;3635653;-46
2022/02/05 02:05:00;;;;;;;;;84.00;62.33;;;;;2.63;77.60;99314.50;6311460;20;3657512;-45
2022/02/05 02:21:50;;;;;;;;;89.67;65.33;;;;;2.18;79.10;99320.47;6278564;20;3662872;-48
2022/02/05 02:25:12;;;;;;;;;77.33;58.67;;;;;2.40;78.90;99323.28;6311023;20;2887826;-47
2022/02/05 02:30:02;;;;;;;;;88.33;64.33;;;;;1.74;80.50;99312.22;6309937;20;3663882;-46
2022/02/05 02:32:36;;;;;;;;;87.67;66.00;;;;;1.90;79.89;99318.75;6310680;20;3651368;-47
2022/02/05 02:35:12;;;;;;;;;87.67;65.00;;;;;1.77;80.85;99301.53;6314694;20;3633734;-46
2022/02/05 02:38:07;;;;;;;;;82.33;64.00;;;;;1.36;81.63;99303.66;6316577;20;2879567;-46
2022/02/05 02:41:14;;;;;;;;;85.67;64.00;;;;;1.40;81.83;99307.09;6314627;20;3661688;-48
2022/02/05 02:43:32;;;;;;;;;86.33;64.00;;;;;1.78;81.17;99313.81;6315087;20;2891949;-47
2022/02/05 02:46:02;;;;;;;;;86.00;66.00;;;;;2.15;79.67;99309.97;6317277;20;3650252;-46
2022/02/05 02:48:31;;;;;;;;;80.33;63.00;;;;;1.98;79.84;99318.50;6315358;20;3636714;-46
2022/02/05 02:59:50;;;;;;;;;90.00;68.33;;;;;2.10;79.31;99317.22;6310268;20;3629423;-46
2022/02/05 03:02:24;;;;;;;;;94.00;69.33;;;;;2.07;79.14;99317.31;6312283;20;3650317;-51
2022/02/05 03:04:56;;;;;;;;;91.00;69.33;;;;;2.17;79.07;99326.69;6312187;20;3627308;-46
2022/02/05 03:07:26;;;;;;;;;91.67;68.67;;;;;1.55;80.46;99317.19;6314259;20;3641897;-47
2022/02/05 03:09:56;;;;;;;;;89.67;68.00;;;;;2.13;80.42;99331.22;6312846;20;2894120;-48
2022/02/05 03:12:26;;;;;;;;;84.33;63.00;;;;;1.98;79.93;99324.66;6316396;20;3646161;-45
2022/02/05 03:14:56;;;;;;;;;86.00;64.67;;;;;2.28;79.31;99329.84;6316226;20;3656456;-46
2022/02/05 03:17:32;;;;;;;;;93.00;67.33;;;;;2.20;78.61;99329.22;6316176;20;3651253;-46
2022/02/05 03:20:02;;;;;;;;;88.33;66.00;;;;;2.24;79.06;99337.94;6316497;20;3648174;-46
2022/02/05 03:22:32;;;;;;;;;86.00;65.00;;;;;2.29;78.97;99336.88;6316083;20;3651274;-45
2022/02/05 03:25:01;;;;;;;;;81.00;62.33;;;;;2.39;78.71;99338.28;6313334;20;2878496;-46
2022/02/05 03:27:31;;;;;;;;;90.33;67.67;;;;;2.10;78.88;99335.75;6315886;20;3636801;-46
2022/02/05 03:30:02;;;;;;;;;91.00;66.33;;;;;2.08;79.46;99342.88;6315178;20;2881987;-48
2022/02/05 03:32:31;;;;;;;;;81.00;63.00;;;;;2.38;78.70;99348.94;6315724;20;2830545;-46
2022/02/05 03:35:00;;;;;;;;;92.33;67.00;;;;;2.14;79.12;99346.19;6283618;20;3644003;-47
2022/02/05 03:37:28;;;;;;;;;81.00;64.00;;;;;2.37;79.03;99350.75;6311090;20;2508592;-45
2022/02/05 03:39:58;;;;;;;;;82.67;63.67;;;;;2.60;77.78;99354.38;6283757;20;2884613;-46
2022/02/05 03:42:28;;;;;;;;;81.67;61.67;;;;;2.52;76.84;99348.47;6311389;20;2894099;-47
2022/02/05 03:44:56;;;;;;;;;61.00;49.00;;;;;2.63;77.54;99346.31;6310830;20;2860717;-46
2022/02/05 03:47:30;;;;;;;;;85.67;63.33;;;;;2.53;78.01;99355.53;6283993;20;3658556;-45
2022/02/05 03:50:00;;;;;;;;;85.33;64.33;;;;;2.11;79.05;99348.09;6315237;20;3652338;-45
2022/02/05 03:52:30;;;;;;;;;88.67;65.00;;;;;2.04;80.07;99354.50;6314728;20;3655495;-47
2022/02/05 03:55:00;;;;;;;;;84.33;63.67;;;;;1.75;81.62;99351.84;6310189;20;2890485;-46
2022/02/05 03:57:29;;;;;;;;;79.50;61.00;;;;;2.07;79.93;99347.31;6315903;20;2880496;-45
2022/02/05 03:59:58;;;;;;;;;83.67;63.33;;;;;2.28;79.07;99353.69;6282675;20;3641881;-47
2022/02/05 04:02:27;;;;;;;;;80.00;64.00;;;;;2.22;79.01;99345.09;6316247;20;2866916;-47
2022/02/05 04:04:56;;;;;;;;;80.00;64.00;;;;;2.54;78.77;99357.25;6282029;20;2880481;-46
2022/02/05 04:07:28;;;;;;;;;82.33;63.67;;;;;2.46;78.20;99348.69;6283099;20;2883693;-54
2022/02/05 04:10:02;;;;;;;;;79.33;61.00;;;;;2.46;78.15;99346.03;6313078;20;2883617;-55
2022/02/05 04:18:07;;;;;;;;;79.00;62.50;;;;;2.42;78.60;99348.81;6314479;20;2868999;-46
2022/02/05 04:20:39;;;;;;;;;83.33;63.00;;;;;2.66;78.70;99348.88;6283284;20;3635730;-46
2022/02/05 04:23:08;;;;;;;;;73.00;60.00;;;;;2.74;79.51;99349.47;6311301;20;2500236;-46
2022/02/05 04:25:37;;;;;;;;;74.00;56.33;;;;;2.90;78.43;99351.56;6281004;20;2884681;-45
2022/02/05 04:28:06;;;;;;;;;76.00;60.50;;;;;3.21;78.52;99360.16;6314102;20;2878367;-48
2022/02/05 04:30:35;;;;;;;;;73.50;57.00;;;;;3.52;77.60;99362.50;6283597;20;2876285;-46
2022/02/05 04:33:03;;;;;;;;;74.50;59.00;;;;;3.67;77.08;99374.34;6280058;20;2502324;-46
2022/02/05 04:35:33;;;;;;;;;80.00;61.33;;;;;3.71;76.69;99364.44;6279171;20;2897418;-46
2022/02/05 04:38:05;;;;;;;;;78.33;59.00;;;;;3.65;76.41;99365.56;6314426;20;3637733;-45
2022/02/05 04:40:45;;;;;;;;;79.33;60.00;;;;;3.82;76.44;99356.97;6315380;20;3641893;-47
2022/02/05 04:43:32;;;;;;;;;72.50;53.50;;;;;3.82;76.26;99369.34;6311696;20;2876313;-46
2022/02/05 05:10:07;;;;;;;;;73.00;56.33;;;;;4.15;76.17;99377.78;6313590;20;3647365;-46
2022/02/05 05:15:35;;;;;;;;;77.33;61.00;;;;;4.22;75.47;99405.84;6310903;20;3637705;-46
2022/02/05 05:21:01;;;;;;;;;85.33;62.67;;;;;4.07;76.29;99420.59;6280902;20;3664844;-48
2022/02/05 05:23:30;;;;;;;;;83.67;64.00;;;;;4.01;76.76;99415.53;6312046;20;3651379;-49
2022/02/05 05:26:00;;;;;;;;;84.00;63.00;;;;;4.06;76.77;99416.22;6310277;20;3657596;-48
2022/02/05 05:28:29;;;;;;;;;75.50;56.50;;;;;4.02;76.94;99417.25;6314403;20;2869077;-46
2022/02/05 05:30:57;;;;;;;;;67.50;56.00;;;;;3.98;77.17;99418.31;6279612;20;2867973;-51
2022/02/05 05:33:27;;;;;;;;;76.00;56.33;;;;;4.09;77.15;99409.91;6282040;20;2883795;-47
2022/02/05 05:35:56;;;;;;;;;73.00;58.50;;;;;4.23;76.82;99415.53;6310695;20;2877369;-50
2022/02/05 05:38:24;;;;;;;;;73.00;57.00;;;;;4.11;77.22;99416.03;6277802;20;2500331;-46
2022/02/05 05:40:53;;;;;;;;;69.00;54.00;;;;;4.21;77.26;99416.50;6281235;20;2871130;-46
2022/02/05 05:43:46;;;;;;;;;73.67;57.67;;;;;4.24;76.73;99422.59;6280272;20;2890031;-45
2022/02/05 05:46:40;;;;;;;;;74.00;62.00;;;;;4.12;76.79;99420.41;6311118;20;2865865;-46
2022/02/05 05:51:44;;;;;;;;;80.50;65.00;;;;;4.04;76.63;99431.34;6310508;20;2879519;-48
2022/02/05 05:54:15;;;;;;;;;85.33;61.00;;;;;4.28;76.84;99441.94;6280571;20;3658583;-45
2022/02/05 05:56:46;;;;;;;;;78.00;59.00;;;;;4.14;77.04;99443.34;6312509;20;3651302;-46
2022/02/05 05:59:16;;;;;;;;;76.67;57.00;;;;;4.26;75.89;99439.31;6309658;20;2888872;-47
2022/02/05 06:01:45;;;;;;;;;82.33;61.33;;;;;4.22;75.83;99444.84;6309788;20;3661749;-46
2022/02/05 06:04:15;;;;;;;;;79.33;61.00;;;;;4.31;75.63;99447.97;6311209;20;3628335;-46
2022/02/05 06:06:45;;;;;;;;;90.67;67.00;;;;;4.11;74.84;99459.41;6312272;20;3658609;-46
2022/02/05 06:09:14;;;;;;;;;82.00;60.00;;;;;4.15;76.10;99465.44;6317863;20;3647470;-46
2022/02/05 06:11:44;;;;;;;;;82.67;62.67;;;;;4.18;76.29;99460.88;6317003;20;3643154;-46
2022/02/05 06:14:18;;;;;;;;;82.67;62.00;;;;;4.29;75.66;99467.56;6316349;20;3640856;-46
2022/02/05 06:16:52;;;;;;;;;81.67;63.67;;;;;4.14;76.51;99475.22;6316831;20;3633580;-47
2022/02/05 06:19:21;;;;;;;;;77.50;61.50;;;;;4.24;76.20;99478.41;6318374;20;2864924;-48
2022/02/05 06:21:50;;;;;;;;;84.00;64.00;;;;;4.29;76.40;99471.09;6286355;20;3651328;-47
2022/02/05 06:24:20;;;;;;;;;83.00;61.00;;;;;4.61;75.52;99471.59;6316827;20;3641981;-49
2022/02/05 06:26:50;;;;;;;;;85.67;64.67;;;;;4.49;75.88;99470.28;6316437;20;3649201;-46
2022/02/05 06:29:19;;;;;;;;;76.67;57.00;;;;;4.42;76.72;99468.81;6317192;20;3648166;-47
2022/02/05 06:31:48;;;;;;;;;82.00;64.50;;;;;4.40;76.54;99476.00;6317392;20;2882656;-53
2022/02/05 06:34:18;;;;;;;;;85.33;62.67;;;;;4.63;75.68;99469.72;6283947;20;3646074;-52
2022/02/05 06:36:47;;;;;;;;;80.67;61.67;;;;;4.65;76.34;99459.03;6315687;20;3634618;-50
2022/02/05 06:39:17;;;;;;;;;86.33;64.33;;;;;4.83;75.99;99463.59;6316232;20;3637798;-47
2022/02/05 06:41:47;;;;;;;;;73.33;60.00;;;;;5.10;74.76;99482.00;6315968;20;2869023;-51
2022/02/05 06:44:17;;;;;;;;;79.33;59.00;;;;;5.19;74.60;99486.94;6316020;20;3637858;-48
2022/02/05 06:46:47;;;;;;;;;82.67;61.33;;;;;5.59;73.82;99479.88;6316701;20;3649405;-48
2022/02/05 06:49:18;;;;;;;;;79.00;59.67;;;;;5.92;72.01;99491.66;6313738;20;3635698;-47
2022/02/05 06:51:48;;;;;;;;;75.00;58.67;;;;;5.88;72.19;99492.72;6317591;20;2876535;-46
2022/02/05 06:54:18;;;;;;;;;81.00;59.33;;;;;6.01;71.47;99492.22;6315835;20;3645052;-50
2022/02/05 06:56:47;;;;;;;;;71.67;56.33;;;;;6.47;70.09;99506.91;6314139;20;3617965;-48
2022/02/05 06:59:17;;;;;;;;;75.00;55.00;;;;;6.90;68.56;99501.28;6317444;20;3639234;-50
2022/02/05 07:01:47;;;;;;;;;74.33;56.33;;;;;6.97;68.62;99500.91;6313229;20;3630442;-47
2022/02/05 07:04:17;;;;;;;;;64.00;51.33;;;;;7.01;68.28;99501.63;6315243;20;3613842;-48
2022/02/05 07:06:48;;;;;;;;;61.00;45.33;;;;;7.48;66.73;99504.56;6316456;20;3626296;-50
2022/02/05 07:09:20;;;;;;;;;73.67;56.00;;;;;7.86;65.75;99508.81;6316589;20;2878440;-51
2022/02/05 07:11:52;;;;;;;;;62.00;49.67;;;;;8.65;63.42;99518.81;6316055;20;2864910;-48
2022/02/05 07:14:25;;;;;;;;;64.33;50.67;;;;;9.31;60.82;99536.44;6316360;20;2871147;-48
2022/02/05 07:17:08;;;;;;;;;61.67;49.67;;;;;9.33;60.68;99531.84;6315722;20;2867045;-48
2022/02/05 07:19:53;;;;;;;;;68.33;52.00;;;;;8.83;62.34;99533.81;6315430;20;2870391;-50
2022/02/05 07:22:24;;;;;;;;;60.00;50.00;;;;;8.90;62.05;99537.00;6316802;20;2854449;-50
2022/02/05 07:29:12;;;;;;;;;59.00;49.00;;;;;9.02;61.57;99558.59;6284190;20;2861737;-51
2022/02/05 07:30:32;;;;;;;;;55.50;47.00;;;;;9.55;60.32;99552.88;6315451;20;2851368;-48
2022/02/05 07:33:02;;;;;;;;;64.33;50.67;;;;;9.83;59.32;99538.69;6285671;20;2875443;-47
2022/02/05 07:35:32;;;;;;;;;65.00;49.33;;;;;9.88;59.56;99558.88;6310448;20;3639846;-48
2022/02/05 07:38:01;;;;;;;;;68.00;52.00;;;;;9.41;60.73;99562.59;6312733;20;3630855;-50
2022/02/05 07:40:33;;;;;;;;;63.33;51.00;;;;;9.00;62.52;99552.47;6315887;20;2868064;-48
2022/02/05 07:43:02;;;;;;;;;68.33;51.67;;;;;8.73;63.81;99540.66;6314924;20;3626297;-53
2022/02/05 07:45:32;;;;;;;;;58.67;46.00;;;;;8.63;64.51;99544.78;6313044;20;3616974;-56
2022/02/05 07:48:01;;;;;;;;;51.00;42.50;;;;;8.89;64.58;99568.28;6313307;20;2862811;-54
2022/02/05 07:50:28;;;;;;;;;53.50;41.50;;;;;8.92;65.69;99562.75;6281312;20;2500256;-55
2022/02/05 07:52:58;;;;;;;;;50.67;38.33;;;;;9.09;65.29;99560.94;6283613;20;3627413;-56
2022/02/05 07:55:27;;;;;;;;;38.00;30.33;;;;;9.18;64.94;99568.44;6312495;20;3606538;-53
2022/02/05 07:57:57;;;;;;;;;38.67;31.00;;;;;9.49;65.19;99569.31;6314141;20;2871156;-55
2022/02/05 08:00:27;;;;;;;;;29.33;27.00;;;;;9.56;64.83;99574.22;6315553;20;3588185;-56
2022/02/05 08:02:58;;;;;;;;;34.00;27.33;;;;;9.36;65.09;99578.06;6284740;20;2850349;-56
2022/02/05 08:05:26;;;;;;;;;31.67;29.00;;;;;9.36;65.36;99572.72;6317164;20;3598167;-54
2022/02/05 08:07:58;;;;;;;;;33.67;30.00;;;;;9.02;66.10;99587.19;6282649;20;3604404;-56
2022/02/05 08:10:32;;;;;;;;;34.33;29.00;;;;;8.81;66.47;99597.28;6319367;20;3602300;-53
2022/02/05 08:13:01;;;;;;;;;39.50;34.50;;;;;8.93;66.20;99595.75;6273038;20;2855454;-53
2022/02/05 08:15:34;;;;;;;;;34.00;32.00;;;;;8.76;66.64;99615.41;6286174;20;3598196;-53
2022/02/05 08:18:02;;;;;;;;;38.50;35.00;;;;;8.81;66.46;99602.66;6281107;20;2863862;-56
2022/02/05 08:20:32;;;;;;;;;53.33;39.67;;;;;8.64;66.00;99595.56;6284016;20;3637760;-55
2022/02/05 08:23:01;;;;;;;;;42.00;38.00;;;;;8.53;66.86;99585.44;6318462;20;3592939;-55
2022/02/05 08:25:30;;;;;;;;;44.00;38.67;;;;;9.01;65.17;99589.00;6279217;20;2869128;-55
2022/02/05 08:27:59;;;;;;;;;55.50;43.00;;;;;9.16;64.66;99589.97;6314382;20;2859613;-57
2022/02/05 08:30:28;;;;;;;;;45.00;37.00;;;;;8.90;64.88;99607.50;6280106;20;2863805;-52
2022/02/05 08:33:04;;;;;;;;;47.67;41.67;;;;;9.00;64.04;99616.75;6281729;20;2866096;-56
2022/02/05 08:35:33;;;;;;;;;52.00;40.00;;;;;9.36;63.32;99614.72;6312188;20;2872696;-53
2022/02/05 08:38:02;;;;;;;;;42.00;35.50;;;;;9.45;63.42;99620.44;6314017;20;2843420;-55
2022/02/05 08:40:32;;;;;;;;;43.67;37.67;;;;;9.21;63.45;99617.31;6285791;20;3616946;-52
2022/02/05 08:43:01;;;;;;;;;49.00;40.67;;;;;9.57;63.00;99617.97;6318473;20;3608574;-52
2022/02/05 08:45:31;;;;;;;;;52.33;42.00;;;;;9.75;62.54;99621.41;6315304;20;2856645;-55
2022/02/05 08:48:00;;;;;;;;;50.67;38.67;;;;;9.65;62.25;99616.56;6318159;20;3624183;-56
2022/02/05 08:50:30;;;;;;;;;54.67;43.00;;;;;9.52;63.06;99625.41;6314322;20;2857738;-53
2022/02/05 08:53:00;;;;;;;;;53.33;42.67;;;;;9.73;62.60;99624.16;6315246;20;3612753;-55
2022/02/05 08:55:31;;;;;;;;;51.67;40.67;;;;;9.79;62.08;99634.50;6311948;20;3625339;-55
2022/02/05 08:58:06;;;;;;;;;47.33;37.00;;;;;10.26;61.55;99629.94;6321694;20;3619993;-57
2022/02/05 09:00:45;;;;;;;;;45.67;37.67;;;;;9.99;61.54;99635.16;6284563;20;2870088;-56
2022/02/05 09:03:36;;;;;;;;;55.00;39.33;;;;;10.13;61.79;99643.22;6318053;20;2868049;-55
2022/02/05 09:06:07;;;;;;;;;40.67;33.67;;;;;9.88;61.43;99644.69;6319041;20;3586828;-56
2022/02/05 09:08:42;;;;;;;;;27.00;22.00;;;;;10.00;61.68;99655.66;6284760;20;2842366;-57
2022/02/05 09:13:59;;;;;;;;;19.00;15.67;;;;;9.26;64.17;99673.31;6285247;20;3547114;-55
2022/02/05 09:16:28;;;;;;;;;20.00;16.67;;;;;9.34;63.39;99676.44;6285138;20;3543973;-51
2022/02/05 09:18:57;;;;;;;;;30.00;22.00;;;;;9.65;62.78;99680.91;6284414;20;2845213;-55
2022/02/05 09:21:30;;;;;;;;;24.00;20.00;;;;;9.72;62.95;99693.97;6283380;20;2839946;-46
2022/02/05 09:24:01;;;;;;;;;19.50;15.00;;;;;9.87;61.69;99688.56;6287099;20;2818996;-48
2022/02/05 09:26:31;;;;;;;;;23.00;19.00;;;;;10.21;60.96;99688.38;6285431;20;2836718;-50
2022/02/05 09:29:03;;;;;;;;;14.33;12.33;;;;;9.89;60.34;99704.56;6284690;20;3516907;-51
2022/02/05 09:31:35;;;;;;;;;27.00;22.50;;;;;9.71;60.51;99700.25;6316481;20;2846225;-51
2022/02/05 09:34:07;;;;;;;;;22.00;19.00;;;;;9.44;60.13;99704.44;6282592;20;2834676;-50
2022/02/05 09:36:43;;;;;;;;;28.00;22.67;;;;;8.89;61.01;99696.78;6285951;20;2849252;-50
2022/02/05 09:41:58;;;;;;;;;22.50;20.00;;;;;9.67;60.30;99697.78;6274862;20;2829441;-51
2022/02/05 09:44:30;;;;;;;;;11.50;11.50;;;;;8.81;61.78;99703.50;6282894;20;2791931;-47
2022/02/05 09:46:59;;;;;;;;;17.00;17.00;;;;;9.57;60.20;99714.47;6281982;20;3549376;-45
2022/02/05 09:49:28;;;;;;;;;15.00;13.50;;;;;9.45;59.89;99711.53;6281910;20;2820144;-51
2022/02/05 09:52:07;;;;;;;;;22.00;19.00;;;;;9.28;60.08;99719.66;6279465;20;2494041;-47
2022/02/05 09:54:39;;;;;;;;;26.50;18.00;;;;;9.89;59.05;99721.50;6281859;20;2846246;-47
2022/02/05 09:57:07;;;;;;;;;14.00;13.00;;;;;9.58;57.47;99713.50;6277554;20;2788932;-48
2022/02/05 09:59:46;;;;;;;;;19.33;15.00;;;;;9.11;57.38;99723.28;6276993;20;3540868;-48
2022/02/05 10:02:37;;;;;;;;;14.50;12.00;;;;;9.11;57.55;99717.91;6279260;20;2799307;-49
2022/02/05 10:05:16;;;;;;;;;12.60;11.40;;;;;9.55;56.98;99717.22;6304536;20;2786872;-50
2022/02/05 10:08:00;;;;;;;;;13.40;12.00;;;;;9.71;56.20;99706.47;6301881;20;2786746;-52
2022/02/05 10:10:45;;;;;;;;;19.67;15.33;;;;;9.82;56.15;99720.16;6278307;20;3539910;-47
2022/02/05 10:13:19;;;;;;;;;21.00;16.50;;;;;9.31;56.01;99730.19;6279546;20;2830457;-49
2022/02/05 10:15:54;;;;;;;;;18.00;12.00;;;;;9.18;56.50;99723.78;6285743;20;2796193;-48
2022/02/05 10:18:36;;;;;;;;;38.67;23.00;;;;;9.34;56.38;99734.50;6311835;20;3607563;-46
2022/02/05 10:25:29;;;;;;;;;21.67;15.67;;;;;9.73;57.33;99736.75;6279687;20;2829419;-47
2022/02/05 10:27:57;;;;;;;;;13.50;9.00;;;;;9.73;56.37;99735.91;6310641;20;2757567;-47
2022/02/05 10:30:30;;;;;;;;;15.33;15.33;;;;;10.01;55.75;99756.63;6282878;20;3549274;-44
2022/02/05 10:33:13;;;;;;;;;11.60;9.40;;;;;9.93;55.50;99758.91;6336322;20;2756934;-50
2022/02/05 10:44:24;;;;;;;;;5.75;5.75;;;;;9.64;54.55;99758.75;6298899;20;1816057;-48
2022/02/05 10:46:57;;;;;;;;;3.50;2.00;;;;;10.04;53.89;99760.00;6311963;20;2748184;-47
2022/02/05 10:49:51;;;;;;;;;3.80;3.80;;;;;10.08;53.66;99760.66;6305817;20;2752392;-46
2022/02/05 10:52:33;;;;;;;;;13.00;8.00;;;;;9.89;52.41;99755.50;6311064;20;2760708;-51
2022/02/05 10:55:41;;;;;;;;;14.00;11.67;;;;;9.37;51.47;99762.03;6282866;20;3517999;-47
2022/02/05 11:05:51;;;;;;;;;25.00;9.67;;;;;9.62;49.67;99758.81;6318010;20;3551277;-47
2022/02/05 11:08:20;;;;;;;;;18.00;8.00;;;;;9.59;49.69;99763.50;6319791;20;2793006;-49
2022/02/05 11:21:14;;;;;;;;;2.00;1.00;;;;;9.75;48.50;99772.41;6338551;20;1804491;-47
2022/02/05 11:23:57;;;;;;;;;15.00;7.00;;;;;9.75;48.72;99771.53;6315678;20;2785663;-49
2022/02/05 11:26:27;;;;;;;;;10.00;8.00;;;;;9.58;49.56;99770.66;6289693;20;2759779;-51
2022/02/05 11:29:03;;;;;;;;;3.00;2.00;;;;;10.19;48.73;99790.44;6288242;20;2746299;-49
2022/02/05 11:31:38;;;;;;;;;3.00;1.00;;;;;10.15;47.29;99804.13;6307519;20;1809778;-48
2022/02/05 11:34:27;;;;;;;;;15.50;9.00;;;;;9.82;46.83;99799.72;6317588;20;2772226;-50
2022/02/05 11:37:07;;;;;;;;;0.00;0.00;;;;;9.93;46.05;99791.94;6304164;20;1809745;-49
2022/02/05 11:39:53;;;;;;;;;4.00;2.29;;;;;9.87;46.51;99798.53;6358300;20;1794039;-51
2022/02/05 11:42:36;;;;;;;;;3.00;3.00;;;;;9.94;45.76;99803.53;6318092;20;2756572;-45
2022/02/05 11:45:37;;;;;;;;;2.00;0.50;;;;;9.73;44.03;99805.63;6305014;20;1809930;-45
2022/02/05 11:49:00;;;;;;;;;8.00;3.00;;;;;9.40;45.20;99798.47;6316197;20;2756539;-46
2022/02/05 11:51:33;;;;;;;;;0.00;0.00;;;;;9.55;44.41;99805.69;6307901;20;1807381;-49
2022/02/05 11:54:17;;;;;;;;;4.00;3.00;;;;;9.54;44.63;99812.00;6317502;20;2749198;-44
2022/02/05 11:56:57;;;;;;;;;12.50;5.00;;;;;9.54;44.53;99814.69;6283979;20;2774253;-50
2022/02/05 11:59:56;;;;;;;;;9.25;3.50;;;;;10.04;44.93;99812.78;6304499;20;1817593;-48
2022/02/05 12:02:44;;;;;;;;;16.00;5.00;;;;;10.08;44.68;99822.38;6316604;20;2792093;-53
2022/02/05 12:05:26;;;;;;;;;27.33;15.83;;;;;9.37;45.66;99820.97;6310291;20;3573243;-51
2022/02/05 12:08:12;;;;;;;;;21.67;9.00;;;;;9.40;46.05;99815.44;6317532;20;3533614;-47
2022/02/05 12:10:46;;;;;;;;;30.00;17.00;;;;;9.55;46.49;99811.03;6317346;20;2842398;-52
2022/02/05 12:13:25;;;;;;;;;24.00;14.00;;;;;9.83;46.30;99813.06;6289958;20;2823335;-53
2022/02/05 12:16:02;;;;;;;;;40.67;18.00;;;;;10.01;45.44;99818.34;6285436;20;2865997;-52
2022/02/05 12:18:52;;;;;;;;;23.67;12.33;;;;;9.60;46.02;99813.47;6316969;20;3571056;-53
2022/02/05 12:21:29;;;;;;;;;49.50;26.50;;;;;9.35;46.05;99806.78;6283324;20;2846093;-49
2022/02/05 12:26:30;;;;;;;;;30.00;17.00;;;;;9.44;46.52;99814.31;6286790;20;2831506;-51
2022/02/05 12:29:01;;;;;;;;;27.67;14.00;;;;;9.00;47.47;99816.72;6286941;20;3568031;-48
2022/02/05 12:31:33;;;;;;;;;27.50;17.00;;;;;9.20;47.39;99827.22;6318745;20;2849206;-50
2022/02/05 12:34:12;;;;;;;;;11.00;8.50;;;;;9.38;47.72;99828.06;6285650;20;2759604;-48
2022/02/05 12:36:46;;;;;;;;;12.00;8.00;;;;;8.99;47.82;99834.59;6285274;20;3485629;-50
2022/02/05 12:39:32;;;;;;;;;19.00;10.00;;;;;9.23;47.46;99847.63;6338632;20;2819039;-50
2022/02/05 12:42:06;;;;;;;;;14.50;4.00;;;;;9.28;49.74;99850.06;6285443;20;2782539;-53
2022/02/05 12:44:38;;;;;;;;;22.50;15.00;;;;;8.81;48.31;99835.56;6286614;20;2806646;-52
2022/02/05 12:47:23;;;;;;;;;40.67;22.67;;;;;8.59;48.23;99837.63;6288083;20;2861811;-52
2022/02/05 12:49:56;;;;;;;;;18.00;7.50;;;;;8.41;49.42;99850.97;6319174;20;2786792;-50
2022/02/05 12:52:31;;;;;;;;;31.67;17.67;;;;;8.54;48.88;99856.59;6287946;20;3583587;-50
2022/02/05 12:55:02;;;;;;;;;18.33;8.00;;;;;8.69;49.04;99870.97;6315572;20;2789882;-46
2022/02/05 12:57:32;;;;;;;;;20.00;15.00;;;;;8.26;48.32;99867.75;6317039;20;2821087;-48
2022/02/05 13:00:12;;;;;;;;;24.00;10.00;;;;;8.69;48.19;99854.91;6287357;20;2815863;-47
2022/02/05 13:02:42;;;;;;;;;16.20;9.00;;;;;8.28;48.19;99871.22;6312069;20;2789859;-46
2022/02/05 13:05:10;;;;;;;;;10.00;7.00;;;;;8.50;48.16;99858.53;6282877;20;2761780;-46
2022/02/05 13:07:43;;;;;;;;;12.00;6.00;;;;;8.62;48.36;99856.19;6285689;20;2777413;-49
2022/02/05 13:10:11;;;;;;;;;32.33;14.00;;;;;8.60;48.08;99860.75;6286030;20;3565885;-50
2022/02/05 13:12:43;;;;;;;;;6.50;6.50;;;;;8.63;48.56;99872.16;6318369;20;2744136;-48
2022/02/05 13:26:39;;;;;;;;;36.00;24.50;;;;;8.46;49.69;99859.63;6282018;20;2487864;-47
2022/02/05 13:29:43;;;;;;;;;17.50;8.50;;;;;8.70;49.07;99878.94;6288995;20;2775479;-47
2022/02/05 13:35:05;;;;;;;;;18.00;8.50;;;;;8.68;49.04;99874.59;6279149;20;2787905;-46
2022/02/05 13:37:49;;;;;;;;;23.50;16.00;;;;;8.93;48.74;99877.78;6281930;20;2475368;-47
2022/02/05 13:40:29;;;;;;;;;16.00;11.50;;;;;8.72;48.88;99878.88;6286881;20;2796126;-46
2022/02/05 13:43:11;;;;;;;;;3.00;2.00;;;;;9.04;47.99;99881.72;6306928;20;1805503;-45
2022/02/05 13:45:42;;;;;;;;;3.00;0.00;;;;;8.84;48.03;99882.72;6336796;20;1806592;-45
2022/02/05 13:48:24;;;;;;;;;7.00;7.00;;;;;9.38;46.82;99887.00;6317856;20;2749365;-47
2022/02/05 13:51:05;;;;;;;;;17.00;10.33;;;;;9.26;47.10;99892.16;6284569;20;3526381;-46
2022/02/05 13:53:34;;;;;;;;;19.33;13.00;;;;;9.51;46.74;99902.44;6315446;20;2804608;-42
2022/02/05 13:56:05;;;;;;;;;15.50;8.00;;;;;9.09;46.80;99890.38;6321220;20;2777351;-49
2022/02/05 13:58:38;;;;;;;;;29.50;15.50;;;;;8.51;46.69;99892.38;6287332;20;2838992;-46
2022/02/05 14:01:08;;;;;;;;;35.50;11.00;;;;;8.69;46.57;99895.06;6282970;20;2827359;-46
2022/02/05 14:03:40;;;;;;;;;18.00;9.00;;;;;8.86;46.76;99895.09;6282788;20;2670084;-46
2022/02/05 14:06:16;;;;;;;;;7.33;0.00;;;;;8.84;46.89;99896.09;6282862;20;3449201;-45
2022/02/05 14:08:52;;;;;;;;;36.67;18.67;;;;;8.90;46.70;99906.50;6281472;20;3588787;-44
2022/02/05 14:11:33;;;;;;;;;14.50;10.00;;;;;8.79;47.36;99915.97;6283051;20;2784796;-46
2022/02/05 14:14:07;;;;;;;;;9.00;7.00;;;;;8.64;47.40;99903.34;6284377;20;2753515;-45
2022/02/05 14:16:40;;;;;;;;;18.00;8.00;;;;;8.55;47.61;99911.81;6283332;20;2796250;-45
2022/02/05 14:19:29;;;;;;;;;7.00;6.00;;;;;8.61;47.32;99916.91;6305153;20;1804674;-44
2022/02/05 14:21:58;;;;;;;;;14.00;8.50;;;;;8.57;47.20;99921.50;6313406;20;2764001;-44
2022/02/05 14:24:33;;;;;;;;;32.00;20.00;;;;;8.47;46.59;99893.47;6284680;20;2856659;-44
2022/02/05 14:27:17;;;;;;;;;2.00;2.00;;;;;8.55;46.26;99912.69;6318826;20;2752436;-48
2022/02/05 14:29:57;;;;;;;;;6.00;3.00;;;;;8.38;45.98;99909.97;6292278;20;2754884;-44
2022/02/05 14:35:21;;;;;;;;;24.50;22.00;;;;;8.12;46.54;99924.59;6318996;20;2827571;-45
2022/02/05 14:40:47;;;;;;;;;9.00;8.00;;;;;8.63;47.08;99935.53;6320814;20;2738908;-50
2022/02/05 14:43:18;;;;;;;;;12.50;9.50;;;;;8.36;47.40;99938.59;6290058;20;2775245;-47
2022/02/05 14:45:47;;;;;;;;;19.50;18.00;;;;;8.35;47.26;99942.22;6286846;20;2839893;-44